Time;durP1;ratioP1;P1;durP2;ratioP2;P2;SDS_P1;SDS_P2;PMS_P1;PMS_P2;Temp;Humidity;BMP_temperature;BMP_pressure;BME280_temperature;BME280_humidity;BME280_pressure;Samples;Min_cycle;Max_cycle;Signal;HPM_P1;HPM_P2
2023/06/10 00:00:43;;;;;;;6.97;5.40;;;17.40;99.90;;;;;;5029942;28;20061;-75
2023/06/10 00:03:09;;;;;;;7.18;5.38;;;17.40;99.90;;;;;;5084342;28;20053;-75
2023/06/10 00:05:35;;;;;;;6.70;5.03;;;17.40;99.90;;;;;;5053163;28;20032;-75
2023/06/10 00:08:08;;;;;;;5.57;4.55;;;17.30;99.90;;;;;;5068874;28;20043;-77
2023/06/10 00:10:35;;;;;;;6.97;5.03;;;17.20;99.90;;;;;;5051341;28;20042;-77
2023/06/10 00:13:03;;;;;;;9.75;5.53;;;17.00;99.90;;;;;;5052582;28;20044;-74
2023/06/10 00:15:29;;;;;;;6.28;4.65;;;16.90;99.90;;;;;;5046892;28;20048;-74
2023/06/10 00:17:54;;;;;;;5.85;5.00;;;16.90;99.90;;;;;;5050895;28;20051;-76
2023/06/10 00:20:23;;;;;;;7.05;5.03;;;16.80;99.90;;;;;;5043693;28;20040;-75
2023/06/10 00:22:49;;;;;;;5.70;4.63;;;16.80;99.90;;;;;;5047060;28;20051;-74
2023/06/10 00:25:15;;;;;;;9.55;4.80;;;16.70;99.90;;;;;;5068928;28;20037;-74
2023/06/10 00:27:41;;;;;;;6.43;4.68;;;16.60;99.90;;;;;;5052959;28;20590;-76
2023/06/10 00:30:08;;;;;;;5.80;4.72;;;16.60;99.90;;;;;;5068726;28;20036;-74
2023/06/10 00:32:34;;;;;;;5.78;4.45;;;16.50;99.90;;;;;;5067096;28;20473;-76
2023/06/10 00:35:00;;;;;;;8.05;4.88;;;16.50;99.90;;;;;;5035895;28;20042;-77
2023/06/10 00:37:25;;;;;;;8.45;5.20;;;16.40;99.90;;;;;;5069551;28;20465;-75
2023/06/10 00:39:51;;;;;;;9.32;5.10;;;16.30;99.90;;;;;;5069123;28;20059;-76
2023/06/10 00:42:17;;;;;;;5.68;4.60;;;16.30;99.90;;;;;;5061852;28;20367;-75
2023/06/10 00:44:42;;;;;;;5.60;4.55;;;16.20;99.90;;;;;;5031395;28;20049;-74
2023/06/10 00:47:08;;;;;;;7.30;4.95;;;16.20;99.90;;;;;;5064900;28;20044;-75
2023/06/10 00:49:34;;;;;;;6.60;4.88;;;16.20;99.90;;;;;;5068261;28;20032;-75
2023/06/10 00:52:02;;;;;;;7.00;5.00;;;16.20;99.90;;;;;;5064025;28;20062;-73
2023/06/10 00:54:28;;;;;;;6.85;4.93;;;16.20;99.90;;;;;;5093116;28;20109;-77
2023/06/10 00:56:55;;;;;;;7.20;4.38;;;16.10;99.90;;;;;;5051608;28;20036;-74
2023/06/10 00:59:21;;;;;;;8.00;4.53;;;16.00;99.90;;;;;;5051821;28;20048;-75
2023/06/10 01:01:47;;;;;;;6.70;4.95;;;16.00;99.90;;;;;;5051601;28;20074;-73
2023/06/10 01:04:13;;;;;;;7.13;4.72;;;16.00;99.90;;;;;;5041899;28;20048;-75
2023/06/10 01:06:50;;;;;;;7.05;4.53;;;16.00;99.90;;;;;;5068157;28;20033;-75
2023/06/10 01:09:32;;;;;;;7.72;5.25;;;16.00;99.90;;;;;;5068125;28;20044;-75
2023/06/10 01:12:26;;;;;;;6.60;5.03;;;15.90;99.90;;;;;;5066583;28;20112;-75
2023/06/10 01:14:53;;;;;;;7.55;4.57;;;15.80;99.90;;;;;;5094250;28;20079;-74
2023/06/10 01:17:19;;;;;;;8.48;4.63;;;15.80;99.90;;;;;;5051520;28;20044;-74
2023/06/10 01:19:55;;;;;;;7.10;4.40;;;15.70;99.90;;;;;;5068644;28;20097;-74
2023/06/10 01:22:22;;;;;;;8.30;4.55;;;15.70;99.90;;;;;;5047389;28;20426;-75
2023/06/10 01:24:50;;;;;;;7.10;4.25;;;15.60;99.90;;;;;;5059633;28;20120;-74
2023/06/10 01:27:19;;;;;;;7.18;4.82;;;15.60;99.90;;;;;;5062187;28;20045;-74
2023/06/10 01:29:52;;;;;;;6.63;4.85;;;15.60;99.90;;;;;;5068914;28;20044;-75
2023/06/10 01:32:28;;;;;;;6.88;4.78;;;15.60;99.90;;;;;;5067712;28;20090;-75
2023/06/10 01:34:56;;;;;;;7.28;4.45;;;15.50;99.90;;;;;;5062060;28;20041;-75
2023/06/10 01:37:25;;;;;;;7.07;4.65;;;15.60;99.90;;;;;;5051217;28;20166;-75
2023/06/10 01:39:52;;;;;;;5.00;4.07;;;15.50;99.90;;;;;;5067247;28;20115;-75
2023/06/10 01:42:18;;;;;;;6.15;4.53;;;15.50;99.90;;;;;;5050677;28;20048;-76
2023/06/10 01:44:44;;;;;;;6.43;4.55;;;15.60;99.90;;;;;;5050037;28;20041;-75
2023/06/10 01:47:09;;;;;;;8.18;4.70;;;15.60;99.90;;;;;;5053722;28;20045;-74
2023/06/10 01:49:35;;;;;;;9.05;5.30;;;15.50;99.90;;;;;;5051294;28;20067;-77
2023/06/10 01:52:01;;;;;;;7.90;5.15;;;15.60;99.90;;;;;;5034802;28;20154;-78
2023/06/10 01:54:27;;;;;;;8.05;4.95;;;15.50;99.90;;;;;;5063187;28;20555;-76
2023/06/10 01:56:52;;;;;;;7.90;4.65;;;15.40;99.90;;;;;;5051256;28;20473;-75
2023/06/10 01:59:18;;;;;;;7.45;4.85;;;15.40;99.90;;;;;;5028617;28;20473;-78
2023/06/10 02:01:44;;;;;;;6.32;4.78;;;15.40;99.90;;;;;;5053797;28;20070;-77
2023/06/10 02:04:10;;;;;;;7.80;5.25;;;15.30;99.90;;;;;;5070966;28;20037;-77
2023/06/10 02:06:37;;;;;;;7.45;5.03;;;15.20;99.90;;;;;;5044010;28;20041;-75
2023/06/10 02:09:03;;;;;;;5.72;4.65;;;15.30;99.90;;;;;;5038914;28;20115;-77
2023/06/10 02:11:29;;;;;;;6.30;4.45;;;15.10;99.90;;;;;;5048398;28;20599;-76
2023/06/10 02:13:54;;;;;;;8.75;4.18;;;15.10;99.90;;;;;;5072911;28;20093;-75
2023/06/10 02:16:21;;;;;;;6.40;4.20;;;15.10;99.90;;;;;;5071057;28;20047;-75
2023/06/10 02:18:46;;;;;;;6.60;4.15;;;15.00;99.90;;;;;;5071571;28;20048;-77
2023/06/10 02:21:12;;;;;;;6.07;4.15;;;15.00;99.90;;;;;;5057445;28;20051;-75
2023/06/10 02:23:38;;;;;;;6.03;3.90;;;15.00;99.90;;;;;;5067925;28;20056;-75
2023/06/10 02:26:04;;;;;;;7.85;4.60;;;15.00;99.90;;;;;;5029580;28;20041;-76
2023/06/10 02:28:29;;;;;;;5.85;3.90;;;15.00;99.90;;;;;;5055634;28;20036;-76
2023/06/10 02:30:56;;;;;;;5.53;4.18;;;15.10;99.90;;;;;;5070657;28;20037;-76
2023/06/10 02:33:23;;;;;;;5.80;3.88;;;15.10;99.90;;;;;;5057510;28;20044;-77
2023/06/10 02:35:48;;;;;;;6.05;4.22;;;15.10;99.90;;;;;;5055396;28;20044;-75
2023/06/10 02:38:14;;;;;;;6.68;4.50;;;15.00;99.90;;;;;;5059434;28;20044;-76
2023/06/10 02:40:40;;;;;;;7.30;4.60;;;15.10;99.90;;;;;;5055014;28;20042;-75
2023/06/10 02:43:05;;;;;;;6.15;4.00;;;15.10;99.90;;;;;;5061681;28;20067;-73
2023/06/10 02:45:31;;;;;;;7.85;4.18;;;15.10;99.90;;;;;;5054991;28;20091;-73
2023/06/10 02:47:57;;;;;;;7.55;4.20;;;15.00;99.90;;;;;;5054453;28;20039;-75
2023/06/10 02:50:22;;;;;;;7.70;4.40;;;15.00;99.90;;;;;;5054163;28;20028;-75
2023/06/10 02:52:49;;;;;;;6.53;4.20;;;15.00;99.90;;;;;;5050538;28;20097;-74
2023/06/10 02:55:15;;;;;;;5.93;3.97;;;15.00;99.90;;;;;;5040240;28;20041;-75
2023/06/10 02:57:41;;;;;;;7.60;4.05;;;15.00;99.90;;;;;;5047293;28;20123;-75
2023/06/10 03:00:10;;;;;;;6.57;4.20;;;15.00;99.90;;;;;;5069659;28;20041;-74
2023/06/10 03:02:39;;;;;;;7.35;4.63;;;14.90;99.90;;;;;;5070114;28;20067;-75
2023/06/10 03:05:09;;;;;;;11.00;5.10;;;14.90;99.90;;;;;;5054127;28;20115;-74
2023/06/10 03:07:36;;;;;;;6.15;4.18;;;14.90;99.90;;;;;;5038825;28;20368;-75
2023/06/10 03:10:02;;;;;;;9.50;4.68;;;14.80;99.90;;;;;;5053961;28;20036;-75
2023/06/10 03:12:28;;;;;;;7.60;5.03;;;14.80;99.90;;;;;;5075915;28;20051;-75
2023/06/10 03:14:53;;;;;;;6.05;4.57;;;14.80;99.90;;;;;;5070088;28;20444;-75
2023/06/10 03:17:19;;;;;;;7.35;4.85;;;14.80;99.90;;;;;;5045638;28;20558;-75
2023/06/10 03:19:45;;;;;;;7.70;4.88;;;14.80;99.90;;;;;;5070456;28;20044;-74
2023/06/10 03:22:16;;;;;;;7.10;4.63;;;14.80;99.90;;;;;;5051758;28;20041;-75
2023/06/10 03:24:43;;;;;;;10.98;5.45;;;14.80;99.90;;;;;;5064676;28;20101;-74
2023/06/10 03:27:13;;;;;;;7.55;4.80;;;14.80;99.90;;;;;;5063238;28;20037;-75
2023/06/10 03:29:39;;;;;;;8.15;4.57;;;14.80;99.90;;;;;;5051828;28;20070;-74
2023/06/10 03:32:05;;;;;;;9.55;5.15;;;14.80;99.90;;;;;;5068696;28;20032;-75
2023/06/10 03:34:31;;;;;;;8.20;5.22;;;14.80;99.90;;;;;;5068306;28;20123;-73
2023/06/10 03:36:57;;;;;;;9.32;5.70;;;14.80;99.90;;;;;;5063946;28;20131;-73
2023/06/10 03:39:23;;;;;;;8.00;5.32;;;14.70;99.90;;;;;;5062285;28;20063;-73
2023/06/10 03:41:52;;;;;;;6.88;5.22;;;14.70;99.90;;;;;;5044121;28;20028;-73
2023/06/10 03:44:18;;;;;;;8.60;5.18;;;14.70;99.90;;;;;;5069721;28;20050;-74
2023/06/10 03:46:43;;;;;;;6.90;5.20;;;14.70;99.90;;;;;;5070716;28;20121;-74
2023/06/10 03:49:10;;;;;;;8.88;5.15;;;14.70;99.90;;;;;;5050920;28;20041;-74
2023/06/10 03:51:36;;;;;;;13.23;6.15;;;14.80;99.90;;;;;;5068714;28;20369;-73
2023/06/10 03:54:02;;;;;;;7.95;5.20;;;14.70;99.90;;;;;;5068258;28;20036;-74
2023/06/10 03:56:28;;;;;;;10.65;5.88;;;14.80;99.90;;;;;;5042815;28;20055;-75
2023/06/10 03:58:54;;;;;;;9.93;6.38;;;14.90;99.90;;;;;;5058056;28;20036;-74
2023/06/10 04:01:20;;;;;;;8.35;5.43;;;15.00;99.90;;;;;;5069313;28;20102;-74
2023/06/10 04:03:48;;;;;;;8.45;5.53;;;15.00;99.90;;;;;;5069285;28;20435;-74
2023/06/10 04:06:14;;;;;;;8.80;5.85;;;15.00;99.90;;;;;;5052179;28;20097;-77
2023/06/10 04:08:40;;;;;;;8.95;5.50;;;15.10;99.90;;;;;;5058933;28;20443;-75
2023/06/10 04:11:06;;;;;;;8.40;5.28;;;15.10;99.90;;;;;;5051989;28;20081;-75
2023/06/10 04:13:31;;;;;;;8.15;5.38;;;15.20;99.90;;;;;;5051600;28;20104;-76
2023/06/10 04:15:57;;;;;;;13.10;5.93;;;15.20;99.90;;;;;;5068966;28;20038;-76
2023/06/10 04:18:23;;;;;;;10.32;6.20;;;15.10;99.90;;;;;;5061935;28;20048;-74
2023/06/10 04:20:49;;;;;;;8.13;5.32;;;15.20;99.90;;;;;;5051962;28;20036;-75
2023/06/10 04:23:14;;;;;;;10.90;5.45;;;15.20;99.90;;;;;;5049805;28;20029;-75
2023/06/10 04:25:40;;;;;;;9.15;5.82;;;15.40;99.90;;;;;;5044031;28;20033;-75
2023/06/10 04:28:06;;;;;;;9.27;5.63;;;15.30;99.90;;;;;;5064189;28;20037;-76
2023/06/10 04:30:32;;;;;;;13.20;6.50;;;15.30;99.90;;;;;;5032938;28;20037;-75
2023/06/10 04:32:58;;;;;;;13.32;5.88;;;15.40;99.90;;;;;;5051539;28;20420;-76
2023/06/10 04:35:26;;;;;;;11.20;5.88;;;15.40;99.90;;;;;;5051849;28;20671;-77
2023/06/10 04:37:52;;;;;;;9.82;6.45;;;15.50;99.90;;;;;;5052239;28;20119;-74
2023/06/10 04:40:17;;;;;;;8.93;4.82;;;15.40;99.90;;;;;;5038287;28;20120;-74
2023/06/10 04:42:43;;;;;;;9.13;6.13;;;15.60;99.90;;;;;;5051771;28;20071;-76
2023/06/10 04:45:09;;;;;;;10.20;5.85;;;15.60;99.90;;;;;;5054350;28;20056;-75
2023/06/10 04:47:35;;;;;;;9.02;4.78;;;15.50;99.90;;;;;;5063879;28;20131;-75
2023/06/10 04:50:01;;;;;;;13.43;7.47;;;15.60;99.90;;;;;;5044236;28;20127;-74
2023/06/10 04:52:27;;;;;;;11.98;6.63;;;15.60;99.90;;;;;;5074513;28;20114;-75
2023/06/10 04:54:53;;;;;;;11.50;6.13;;;15.60;99.90;;;;;;5047729;28;20047;-75
2023/06/10 04:57:20;;;;;;;10.35;5.75;;;15.70;99.90;;;;;;5068347;28;20040;-76
2023/06/10 04:59:46;;;;;;;9.60;5.97;;;15.80;99.90;;;;;;5051994;28;20066;-74
2023/06/10 05:02:12;;;;;;;6.85;4.47;;;15.70;99.90;;;;;;5049776;28;20051;-74
2023/06/10 05:04:37;;;;;;;9.63;6.25;;;15.80;99.90;;;;;;5051457;28;20036;-75
2023/06/10 05:07:04;;;;;;;10.05;6.18;;;15.70;99.90;;;;;;5068393;28;20152;-77
2023/06/10 05:09:30;;;;;;;8.23;5.90;;;15.80;99.90;;;;;;5069306;28;20043;-74
2023/06/10 05:11:56;;;;;;;10.88;6.25;;;15.90;99.90;;;;;;5067818;28;20040;-75
2023/06/10 05:14:22;;;;;;;12.98;6.10;;;15.90;99.90;;;;;;5051033;28;20098;-74
2023/06/10 05:16:48;;;;;;;8.27;6.05;;;16.00;99.90;;;;;;5051240;28;20083;-76
2023/06/10 05:19:16;;;;;;;10.25;5.72;;;15.90;99.90;;;;;;5067503;28;20052;-75
2023/06/10 05:21:41;;;;;;;10.25;6.15;;;16.10;99.90;;;;;;5046352;28;20124;-76
2023/06/10 05:24:07;;;;;;;10.82;6.20;;;16.10;99.90;;;;;;5048196;28;20111;-76
2023/06/10 05:26:37;;;;;;;7.78;4.95;;;16.10;99.90;;;;;;5052625;28;20419;-75
2023/06/10 05:29:03;;;;;;;8.13;6.32;;;16.10;99.90;;;;;;5078712;28;20043;-75
2023/06/10 05:31:29;;;;;;;10.20;6.00;;;16.10;99.90;;;;;;5040089;28;20033;-75
2023/06/10 05:33:54;;;;;;;8.23;5.00;;;16.00;99.90;;;;;;5064656;28;20094;-74
2023/06/10 05:36:20;;;;;;;9.27;5.25;;;16.20;99.90;;;;;;5066234;28;20087;-75
2023/06/10 05:38:46;;;;;;;10.77;6.38;;;16.20;99.90;;;;;;5050490;28;20045;-75
2023/06/10 05:41:12;;;;;;;12.38;6.32;;;16.10;99.90;;;;;;5066481;28;20067;-75
2023/06/10 05:43:37;;;;;;;9.77;5.78;;;16.10;99.90;;;;;;5064688;28;20074;-74
2023/06/10 05:46:04;;;;;;;9.85;5.88;;;16.30;99.90;;;;;;5062388;28;20440;-74
2023/06/10 05:48:30;;;;;;;9.13;6.35;;;16.30;99.90;;;;;;5031869;28;20094;-75
2023/06/10 05:50:56;;;;;;;10.35;6.20;;;16.30;99.90;;;;;;5066799;28;20040;-74
2023/06/10 05:53:22;;;;;;;13.48;6.97;;;16.50;99.90;;;;;;5049687;28;20036;-74
2023/06/10 05:55:47;;;;;;;10.75;5.65;;;16.50;99.90;;;;;;5046964;28;20040;-74
2023/06/10 05:58:14;;;;;;;10.25;5.85;;;16.60;99.90;;;;;;5068409;28;20723;-69
2023/06/10 06:00:40;;;;;;;9.25;5.40;;;16.60;99.90;;;;;;5058463;28;20049;-73
2023/06/10 06:03:09;;;;;;;10.00;5.50;;;16.70;99.90;;;;;;5070710;28;20040;-73
2023/06/10 06:05:37;;;;;;;9.73;6.05;;;16.50;99.90;;;;;;5040229;28;20037;-73
2023/06/10 06:08:04;;;;;;;8.48;4.85;;;16.50;99.90;;;;;;5086443;28;20136;-73
2023/06/10 06:10:30;;;;;;;9.90;5.93;;;16.70;99.90;;;;;;5072348;28;20080;-73
2023/06/10 06:12:59;;;;;;;9.10;5.97;;;16.80;99.90;;;;;;5050245;28;20060;-73
2023/06/10 06:15:25;;;;;;;9.55;6.13;;;16.80;99.90;;;;;;5063355;28;20589;-73
2023/06/10 06:17:52;;;;;;;9.75;5.53;;;16.80;99.90;;;;;;5067035;28;20037;-73
2023/06/10 06:20:19;;;;;;;9.30;5.60;;;17.00;99.90;;;;;;5033142;28;20032;-74
2023/06/10 06:22:45;;;;;;;9.23;4.78;;;17.10;99.90;;;;;;5049492;28;20044;-75
2023/06/10 06:25:11;;;;;;;6.40;4.47;;;17.30;99.90;;;;;;5065036;28;20097;-76
2023/06/10 06:27:36;;;;;;;8.55;5.65;;;17.30;99.90;;;;;;5031562;28;20120;-73
2023/06/10 06:30:02;;;;;;;10.68;5.40;;;17.50;99.90;;;;;;5066229;28;20036;-73
2023/06/10 06:32:28;;;;;;;5.78;4.32;;;17.50;99.90;;;;;;5048949;28;20052;-74
2023/06/10 06:34:54;;;;;;;10.00;5.60;;;17.80;99.90;;;;;;5059543;28;20043;-75
2023/06/10 06:37:26;;;;;;;9.35;5.63;;;17.80;99.90;;;;;;5041541;28;20036;-73
2023/06/10 06:39:53;;;;;;;8.45;5.47;;;18.10;99.90;;;;;;5044878;28;20450;-72
2023/06/10 06:42:20;;;;;;;10.60;5.70;;;18.10;99.90;;;;;;5043100;28;20045;-72
2023/06/10 06:44:46;;;;;;;7.20;4.30;;;18.30;99.90;;;;;;5037408;28;20103;-74
2023/06/10 06:47:12;;;;;;;10.38;5.57;;;18.40;99.90;;;;;;5062455;28;20419;-75
2023/06/10 06:49:38;;;;;;;8.85;5.40;;;18.70;99.90;;;;;;5029582;28;20025;-74
2023/06/10 06:52:04;;;;;;;6.93;4.95;;;18.80;99.90;;;;;;5052041;28;20039;-74
2023/06/10 06:54:30;;;;;;;7.70;5.05;;;19.20;99.90;;;;;;5078495;28;20052;-75
2023/06/10 06:56:56;;;;;;;7.53;4.57;;;19.30;99.90;;;;;;5045101;28;20055;-74
2023/06/10 06:59:22;;;;;;;5.88;4.53;;;19.60;99.90;;;;;;5045029;28;20413;-75
2023/06/10 07:01:48;;;;;;;8.52;5.38;;;19.60;99.90;;;;;;5053346;28;20051;-73
2023/06/10 07:04:15;;;;;;;7.95;5.10;;;19.90;99.90;;;;;;5070693;28;20397;-76
2023/06/10 07:06:41;;;;;;;7.70;5.15;;;19.70;99.90;;;;;;5069939;28;20365;-73
2023/06/10 07:09:08;;;;;;;6.68;4.60;;;19.90;99.90;;;;;;5054090;28;20047;-76
2023/06/10 07:11:34;;;;;;;6.22;4.60;;;19.80;99.90;;;;;;5070071;28;20492;-76
2023/06/10 07:14:00;;;;;;;6.53;4.18;;;20.00;99.90;;;;;;5069990;28;20045;-74
2023/06/10 07:16:26;;;;;;;7.63;5.28;;;19.80;99.90;;;;;;5058577;28;20131;-73
2023/06/10 07:18:53;;;;;;;6.00;4.45;;;19.90;99.90;;;;;;5044289;28;20040;-76
2023/06/10 07:21:18;;;;;;;5.75;4.22;;;19.90;99.90;;;;;;5065095;28;20036;-75
2023/06/10 07:23:44;;;;;;;7.30;4.53;;;19.60;99.90;;;;;;5034027;28;20047;-75
2023/06/10 07:26:13;;;;;;;7.63;4.80;;;19.80;99.90;;;;;;5052612;28;20078;-75
2023/06/10 07:28:39;;;;;;;7.30;4.35;;;20.00;99.90;;;;;;5053302;28;20044;-76
2023/06/10 07:31:05;;;;;;;9.05;5.10;;;19.70;99.90;;;;;;5038048;28;20119;-77
2023/06/10 07:33:30;;;;;;;9.40;4.40;;;20.00;99.90;;;;;;5052666;28;20127;-74
2023/06/10 07:35:56;;;;;;;11.63;5.10;;;19.80;99.90;;;;;;5047179;28;20488;-73
2023/06/10 07:38:22;;;;;;;8.32;4.18;;;19.90;99.90;;;;;;5069388;28;20041;-76
2023/06/10 07:40:47;;;;;;;7.30;4.05;;;20.00;99.90;;;;;;5053323;28;20037;-73
2023/06/10 07:43:13;;;;;;;6.68;3.80;;;20.20;99.90;;;;;;5070001;28;20084;-72
2023/06/10 07:45:43;;;;;;;7.32;4.47;;;20.10;99.90;;;;;;5052493;28;20101;-74
2023/06/10 07:48:09;;;;;;;5.88;3.60;;;20.20;99.90;;;;;;5041422;28;20076;-75
2023/06/10 07:50:35;;;;;;;6.13;4.20;;;20.10;99.90;;;;;;5069051;28;20147;-75
2023/06/10 07:53:01;;;;;;;5.47;3.83;;;20.10;99.90;;;;;;5068208;28;20119;-72
2023/06/10 07:55:27;;;;;;;5.82;4.03;;;20.20;99.90;;;;;;5052367;28;20043;-70
2023/06/10 07:57:53;;;;;;;7.13;3.83;;;20.60;99.90;;;;;;5063015;28;20459;-72
2023/06/10 08:00:20;;;;;;;6.10;4.03;;;20.60;99.90;;;;;;5066008;28;20040;-72
2023/06/10 08:02:46;;;;;;;5.05;3.65;;;20.40;99.90;;;;;;5070042;28;20044;-74
2023/06/10 08:05:12;;;;;;;5.50;3.58;;;20.50;99.90;;;;;;5076310;28;20058;-75
2023/06/10 08:07:38;;;;;;;5.65;3.70;;;20.20;99.90;;;;;;5065725;28;20033;-74
2023/06/10 08:10:05;;;;;;;7.15;4.10;;;20.30;99.90;;;;;;5068192;28;20024;-74
2023/06/10 08:12:32;;;;;;;5.82;4.18;;;20.40;99.90;;;;;;5051238;28;20044;-73
2023/06/10 08:14:58;;;;;;;7.38;3.97;;;20.50;99.90;;;;;;5062271;28;20082;-74
2023/06/10 08:17:24;;;;;;;6.57;4.10;;;20.70;99.90;;;;;;5066598;28;20036;-74
2023/06/10 08:19:49;;;;;;;10.02;4.20;;;21.00;99.90;;;;;;5044885;28;20035;-72
2023/06/10 08:22:15;;;;;;;6.00;3.60;;;21.20;99.90;;;;;;5051760;28;20048;-75
2023/06/10 08:24:41;;;;;;;6.63;4.05;;;20.90;99.90;;;;;;5059222;28;20048;-75
2023/06/10 08:27:07;;;;;;;9.00;4.15;;;21.20;99.90;;;;;;5048709;28;20515;-73
2023/06/10 08:29:32;;;;;;;7.95;4.00;;;21.30;99.90;;;;;;5051289;28;20036;-74
2023/06/10 08:31:58;;;;;;;9.50;3.63;;;21.50;99.90;;;;;;5093043;28;20036;-75
2023/06/10 08:34:24;;;;;;;4.75;3.50;;;21.50;99.90;;;;;;5068018;28;20131;-74
2023/06/10 08:36:55;;;;;;;6.85;4.10;;;21.50;99.90;;;;;;5043822;28;20052;-74
2023/06/10 08:39:22;;;;;;;6.55;3.55;;;21.50;99.90;;;;;;5049065;28;20040;-73
2023/06/10 08:42:07;;;;;;;11.18;3.90;;;21.70;99.90;;;;;;5052105;28;20055;-74
2023/06/10 08:44:37;;;;;;;5.28;2.90;;;21.90;99.90;;;;;;5067862;28;20095;-75
2023/06/10 08:47:13;;;;;;;5.90;3.75;;;21.60;99.90;;;;;;5068544;28;20044;-75
2023/06/10 08:49:43;;;;;;;6.35;3.72;;;22.00;99.90;;;;;;5062574;28;20115;-75
2023/06/10 08:52:15;;;;;;;6.50;3.60;;;21.80;99.90;;;;;;5068150;28;20533;-75
2023/06/10 08:54:48;;;;;;;5.43;3.53;;;22.10;99.90;;;;;;5051304;28;20044;-73
2023/06/10 08:57:16;;;;;;;5.43;3.60;;;22.30;99.90;;;;;;5052074;28;20044;-76
2023/06/10 08:59:42;;;;;;;6.38;3.60;;;22.40;99.90;;;;;;5071702;28;20444;-75
2023/06/10 09:02:09;;;;;;;7.72;4.07;;;22.40;99.90;;;;;;5062770;28;20040;-74
2023/06/10 09:04:36;;;;;;;7.45;4.25;;;22.60;99.90;;;;;;5068033;28;20048;-75
2023/06/10 09:07:03;;;;;;;7.85;3.95;;;22.50;99.90;;;;;;5055291;28;20791;-76
2023/06/10 09:09:32;;;;;;;5.90;3.70;;;22.80;99.90;;;;;;5067649;28;20062;-74
2023/06/10 09:11:58;;;;;;;6.43;3.50;;;23.00;99.90;;;;;;5067009;28;20037;-74
2023/06/10 09:14:24;;;;;;;5.35;3.30;;;23.40;99.90;;;;;;5050265;28;20040;-75
2023/06/10 09:16:49;;;;;;;5.85;3.58;;;23.70;99.90;;;;;;5049156;28;20046;-74
2023/06/10 09:19:16;;;;;;;5.95;3.60;;;24.00;99.90;;;;;;5051619;28;20036;-74
2023/06/10 09:21:42;;;;;;;6.72;3.75;;;23.90;99.90;;;;;;5047257;28;20071;-74
2023/06/10 09:24:08;;;;;;;8.07;3.25;;;24.40;99.90;;;;;;5066766;28;20373;-75
2023/06/10 09:26:34;;;;;;;5.07;3.38;;;24.70;99.90;;;;;;5048784;28;20044;-75
2023/06/10 09:29:04;;;;;;;5.63;4.00;;;24.70;99.90;;;;;;5065483;28;20045;-74
2023/06/10 09:31:31;;;;;;;5.80;3.47;;;24.70;99.90;;;;;;5060350;28;21258;-75
2023/06/10 09:34:15;;;;;;;5.03;3.22;;;24.80;99.90;;;;;;5044598;28;20098;-76
2023/06/10 09:36:41;;;;;;;5.40;3.40;;;25.10;99.90;;;;;;5039207;28;20135;-76
2023/06/10 09:39:17;;;;;;;7.70;3.70;;;24.80;99.90;;;;;;5043623;28;20048;-75
2023/06/10 09:41:44;;;;;;;6.28;3.67;;;24.90;99.90;;;;;;5048036;28;20048;-71
2023/06/10 09:44:16;;;;;;;5.97;3.80;;;25.50;99.90;;;;;;5069328;28;20060;-73
2023/06/10 09:46:47;;;;;;;6.55;3.80;;;25.10;99.90;;;;;;5066851;28;20118;-71
2023/06/10 09:49:13;;;;;;;5.20;3.88;;;25.70;99.90;;;;;;5081430;28;20044;-73
2023/06/10 09:51:52;;;;;;;5.85;3.30;;;25.50;99.90;;;;;;5070422;28;20413;-71
2023/06/10 09:54:19;;;;;;;4.55;3.30;;;26.00;99.90;;;;;;5032616;28;20044;-72
2023/06/10 09:56:49;;;;;;;5.25;3.35;;;26.20;99.90;;;;;;5049887;28;20127;-71
2023/06/10 09:59:15;;;;;;;6.60;3.25;;;26.40;43.60;;;;;;5051119;28;20040;-73
2023/06/10 10:01:41;;;;;;;5.90;3.50;;;25.70;99.90;;;;;;5049746;28;20059;-77
2023/06/10 10:04:07;;;;;;;5.00;3.53;;;25.70;94.00;;;;;;5067210;28;20044;-74
2023/06/10 10:06:35;;;;;;;8.05;3.60;;;25.50;99.90;;;;;;5067474;28;20131;-73
2023/06/10 10:09:01;;;;;;;4.30;3.40;;;25.10;78.60;;;;;;5051112;28;20029;-74
2023/06/10 10:11:27;;;;;;;7.30;4.20;;;25.90;92.30;;;;;;5050832;28;20032;-75
2023/06/10 10:13:53;;;;;;;5.90;3.30;;;25.20;65.10;;;;;;5065539;28;20044;-73
2023/06/10 10:16:32;;;;;;;7.20;3.85;;;25.90;76.30;;;;;;5056014;28;20036;-74
2023/06/10 10:19:05;;;;;;;5.28;3.70;;;25.50;34.00;;;;;;5061016;28;20040;-75
2023/06/10 10:21:37;;;;;;;5.00;3.38;;;25.80;59.60;;;;;;5053166;28;20055;-78
2023/06/10 10:24:12;;;;;;;4.43;3.33;;;25.70;37.00;;;;;;5070350;28;20048;-73
2023/06/10 10:26:38;;;;;;;6.88;3.80;;;26.00;24.70;;;;;;5045026;28;20376;-74
2023/06/10 10:29:10;;;;;;;5.47;3.95;;;26.50;15.70;;;;;;5073433;28;20037;-74
2023/06/10 10:31:37;;;;;;;4.53;3.47;;;26.20;15.80;;;;;;5050368;28;20595;-73
2023/06/10 10:34:09;;;;;;;7.00;3.90;;;26.40;25.00;;;;;;5084677;28;20037;-75
2023/06/10 10:36:36;;;;;;;8.02;4.13;;;26.90;11.40;;;;;;5037493;28;20049;-74
2023/06/10 10:39:03;;;;;;;5.50;3.50;;;26.50;11.90;;;;;;5035624;28;20083;-74
2023/06/10 10:41:31;;;;;;;5.05;3.85;;;26.90;1.00;;;;;;5054009;28;20120;-75
2023/06/10 10:43:58;;;;;;;8.48;4.13;;;26.30;1.00;;;;;;5066648;28;20480;-74
2023/06/10 10:46:24;;;;;;;6.35;4.00;;;26.20;1.00;;;;;;5073962;28;20046;-75
2023/06/10 10:48:54;;;;;;;3.90;3.47;;;26.60;1.00;;;;;;5057244;28;20536;-75
2023/06/10 10:51:20;;;;;;;4.13;3.30;;;27.10;1.00;;;;;;5064907;28;20041;-73
2023/06/10 10:54:15;;;;;;;7.15;3.83;;;26.80;1.00;;;;;;5066408;28;20051;-75
2023/06/10 10:57:09;;;;;;;5.97;3.30;;;26.40;1.00;;;;;;5033951;28;20043;-74
2023/06/10 10:59:51;;;;;;;5.13;3.92;;;26.80;1.00;;;;;;5051277;28;20496;-76
2023/06/10 11:03:01;;;;;;;6.40;3.78;;;27.10;1.00;;;;;;5062818;28;20052;-76
2023/06/10 11:05:47;;;;;;;5.18;3.75;;;27.50;1.00;;;;;;5028020;28;20413;-73
2023/06/10 11:08:14;;;;;;;4.90;3.50;;;27.30;1.00;;;;;;5048128;28;20102;-75
2023/06/10 11:10:41;;;;;;;4.80;3.25;;;27.20;1.00;;;;;;5053346;28;20044;-75
2023/06/10 11:13:14;;;;;;;4.95;3.45;;;28.00;1.00;;;;;;5060879;28;20050;-74
2023/06/10 11:15:49;;;;;;;5.93;3.80;;;27.40;99.90;;;;;;5052228;28;20040;-73
2023/06/10 11:18:23;;;;;;;5.00;3.60;;;26.80;99.90;;;;;;5055775;28;20414;-76
2023/06/10 11:20:49;;;;;;;5.47;3.80;;;27.30;99.90;;;;;;5079050;28;20412;-76
2023/06/10 11:23:32;;;;;;;6.55;4.30;;;27.00;99.90;;;;;;5057259;28;20033;-75
2023/06/10 11:26:15;;;;;;;5.00;3.40;;;26.80;99.90;;;;;;5047030;28;20044;-72
2023/06/10 11:28:47;;;;;;;7.10;3.78;;;27.10;99.90;;;;;;5063083;28;20036;-73
2023/06/10 11:31:23;;;;;;;5.97;3.90;;;27.00;99.90;;;;;;5060098;28;20041;-73
2023/06/10 11:34:03;;;;;;;5.40;4.13;;;27.60;99.90;;;;;;5080937;28;20096;-73
2023/06/10 11:36:29;;;;;;;5.20;3.58;;;27.20;99.90;;;;;;5079768;28;20492;-73
2023/06/10 11:39:04;;;;;;;5.28;4.13;;;28.20;99.90;;;;;;5082096;28;20036;-72
2023/06/10 11:41:31;;;;;;;4.50;3.78;;;27.20;99.90;;;;;;5086459;28;20065;-74
2023/06/10 11:44:02;;;;;;;6.10;4.13;;;27.90;99.90;;;;;;5094623;28;20075;-73
2023/06/10 11:46:28;;;;;;;5.28;4.00;;;27.00;99.90;;;;;;5069412;28;20036;-76
2023/06/10 11:48:55;;;;;;;6.35;4.32;;;27.70;99.90;;;;;;5080391;28;20083;-76
2023/06/10 11:51:21;;;;;;;4.72;3.55;;;27.40;99.90;;;;;;5079733;28;20041;-76
2023/06/10 11:53:50;;;;;;;6.25;4.18;;;27.90;99.90;;;;;;5067248;28;20033;-76
2023/06/10 11:56:20;;;;;;;4.93;4.43;;;27.80;99.90;;;;;;5070007;28;20044;-74
2023/06/10 11:59:00;;;;;;;6.30;4.15;;;27.30;99.90;;;;;;5063446;28;20400;-74
2023/06/10 12:01:27;;;;;;;4.40;3.65;;;27.50;99.90;;;;;;5062441;28;20045;-75
2023/06/10 12:04:06;;;;;;;4.53;3.50;;;27.60;99.90;;;;;;5042210;28;20041;-73
2023/06/10 12:06:47;;;;;;;7.47;4.07;;;28.10;99.90;;;;;;5078875;28;20040;-74
2023/06/10 12:09:17;;;;;;;7.30;3.70;;;28.40;99.90;;;;;;5078403;28;20340;-75
2023/06/10 12:11:44;;;;;;;4.60;3.22;;;28.70;99.90;;;;;;5076515;28;20032;-74
2023/06/10 12:14:10;;;;;;;5.90;3.85;;;27.90;99.90;;;;;;5075802;28;20052;-73
2023/06/10 12:16:36;;;;;;;5.97;4.20;;;28.20;99.90;;;;;;5070883;28;20610;-74
2023/06/10 12:19:06;;;;;;;7.63;4.18;;;27.60;99.90;;;;;;5081206;28;20041;-73
2023/06/10 12:21:34;;;;;;;9.48;4.22;;;28.40;99.90;;;;;;5056843;28;20118;-73
2023/06/10 12:24:04;;;;;;;8.27;4.22;;;27.70;99.90;;;;;;5052399;28;20579;-74
2023/06/10 12:26:48;;;;;;;5.47;4.00;;;27.30;99.90;;;;;;5053538;28;20589;-74
2023/06/10 12:29:24;;;;;;;7.30;3.88;;;27.50;99.90;;;;;;5069412;28;20040;-75
2023/06/10 12:32:16;;;;;;;5.93;4.13;;;27.80;99.90;;;;;;5048799;28;20416;-74
2023/06/10 12:34:41;;;;;;;5.32;3.65;;;27.80;99.90;;;;;;5049080;28;20048;-76
2023/06/10 12:37:15;;;;;;;5.38;3.60;;;28.00;99.90;;;;;;5050713;28;20048;-74
2023/06/10 12:39:42;;;;;;;3.95;3.50;;;28.10;99.90;;;;;;5068468;28;20080;-74
2023/06/10 12:42:09;;;;;;;5.78;3.60;;;28.00;99.90;;;;;;5079954;28;20447;-75
2023/06/10 12:44:39;;;;;;;4.32;3.50;;;28.60;99.90;;;;;;5067279;28;20055;-74
2023/06/10 12:47:09;;;;;;;4.63;3.72;;;28.90;99.90;;;;;;5067001;28;20040;-73
2023/06/10 12:49:36;;;;;;;5.05;4.20;;;27.90;99.90;;;;;;5058931;28;20128;-74